Sunset, Maine
Current Conditions -  °F | °C
As of 3:55 AM on Saturday 29 Nov 2014 (Local Time) from KRKD Reporting Station
Clear Clear  
Wind Chill:   Ceiling: Unl
Heat Index: 16°   Visibility: 10mi
Dew Point: 12°   Wind: 8mph
Humidity: 86%   Direction: 270°W
Pressure: 30.2"   Gusts: NA
Location:  44.21°N, 68.71°W
Report Text: KRKD 290855Z AUTO 27007KT 10SM CLR M09/M11 A3020 RMK AO1 52014
Loading
Personal Weather Stations






























Interactive Weather Map New forecast layout! Learn more

10-Day Weather Forecast

Advertisements
Track Severe Weather on mobile